Time;durP1;ratioP1;P1;durP2;ratioP2;P2;SDS_P1;SDS_P2;PMS_P1;PMS_P2;Temp;Humidity;BMP_temperature;BMP_pressure;BME280_temperature;BME280_humidity;BME280_pressure;Samples;Min_cycle;Max_cycle;Signal;HPM_P1;HPM_P2
2023/01/11 00:00:37;;;;;;;29.15;20.63;;;;;;;;;;5032969;28;20120;-71
2023/01/11 00:03:04;;;;;;;30.20;20.00;;;;;;;;;;5032936;28;20059;-72
2023/01/11 00:05:29;;;;;;;29.20;20.38;;;;;;;;;;5035001;28;20056;-71
2023/01/11 00:07:54;;;;;;;31.95;22.27;;;;;;;;;;5036703;28;20728;-71
2023/01/11 00:10:20;;;;;;;32.80;22.75;;;;;;;;;;5036701;28;20025;-71
2023/01/11 00:12:45;;;;;;;32.28;22.02;;;;;;;;;;5036636;28;20436;-75
2023/01/11 00:15:11;;;;;;;31.88;22.20;;;;;;;;;;5018821;28;20428;-76
2023/01/11 00:17:37;;;;;;;31.35;20.33;;;;;;;;;;5036377;28;20045;-77
2023/01/11 00:20:02;;;;;;;27.40;20.00;;;;;;;;;;5036455;28;20483;-76
2023/01/11 00:22:27;;;;;;;29.50;20.95;;;;;;;;;;5018671;28;20048;-76
2023/01/11 00:24:53;;;;;;;30.38;21.75;;;;;;;;;;5036382;28;20061;-74
2023/01/11 00:27:18;;;;;;;32.40;21.58;;;;;;;;;;5036329;28;20048;-73
2023/01/11 00:29:43;;;;;;;36.78;23.20;;;;;;;;;;5035008;28;20049;-74
2023/01/11 00:32:09;;;;;;;40.75;27.48;;;;;;;;;;5018388;28;20401;-74
2023/01/11 00:34:34;;;;;;;43.58;27.55;;;;;;;;;;5036155;28;20075;-73
2023/01/11 00:37:01;;;;;;;40.63;27.15;;;;;;;;;;5036112;28;20036;-73
2023/01/11 00:39:27;;;;;;;41.05;26.75;;;;;;;;;;5036076;28;20037;-74
2023/01/11 00:50:04;;;;;;;41.30;27.33;;;;;;;;;;5035904;28;20045;-72
2023/01/11 00:52:29;;;;;;;42.58;27.58;;;;;;;;;;5035868;28;20045;-72
2023/01/11 00:54:54;;;;;;;41.08;26.60;;;;;;;;;;5035862;28;20065;-73
2023/01/11 00:57:19;;;;;;;44.08;29.92;;;;;;;;;;5035721;28;20033;-72
2023/01/11 00:59:45;;;;;;;47.40;32.25;;;;;;;;;;5035706;28;20029;-72
2023/01/11 01:02:11;;;;;;;41.45;27.85;;;;;;;;;;5017900;28;20037;-72
2023/01/11 01:04:37;;;;;;;41.33;27.10;;;;;;;;;;5034367;28;20045;-71
2023/01/11 01:07:02;;;;;;;36.55;24.45;;;;;;;;;;5035661;28;20040;-72
2023/01/11 01:09:28;;;;;;;37.17;25.38;;;;;;;;;;5034226;28;20396;-71
2023/01/11 01:11:54;;;;;;;40.35;26.23;;;;;;;;;;5035504;28;20179;-71
2023/01/11 01:14:30;;;;;;;39.72;25.83;;;;;;;;;;5035485;28;20045;-72
2023/01/11 01:16:57;;;;;;;33.92;23.35;;;;;;;;;;5034972;28;20045;-71
2023/01/11 01:19:23;;;;;;;37.17;24.58;;;;;;;;;;5035371;28;20460;-71
2023/01/11 01:21:49;;;;;;;34.95;23.85;;;;;;;;;;5017652;28;20065;-71
2023/01/11 01:24:14;;;;;;;34.42;23.45;;;;;;;;;;5017556;28;20037;-71
2023/01/11 01:26:39;;;;;;;33.58;22.88;;;;;;;;;;5017561;28;20496;-72
2023/01/11 01:29:05;;;;;;;35.40;23.42;;;;;;;;;;5035225;28;20025;-71
2023/01/11 01:31:30;;;;;;;32.40;22.92;;;;;;;;;;5035200;28;20416;-71
2023/01/11 01:33:55;;;;;;;36.15;24.35;;;;;;;;;;5035144;28;20038;-71
2023/01/11 01:36:21;;;;;;;38.15;26.20;;;;;;;;;;5035119;28;20469;-71
2023/01/11 01:38:46;;;;;;;38.65;26.88;;;;;;;;;;5035268;28;20065;-71
2023/01/11 01:41:11;;;;;;;57.22;38.85;;;;;;;;;;5034958;28;20381;-71
2023/01/11 01:43:50;;;;;;;43.55;29.80;;;;;;;;;;5035002;28;20073;-72
2023/01/11 01:46:16;;;;;;;45.80;29.65;;;;;;;;;;5034786;28;20049;-71
2023/01/11 01:48:43;;;;;;;39.63;27.55;;;;;;;;;;5034817;28;20080;-72
2023/01/11 01:51:12;;;;;;;40.28;28.27;;;;;;;;;;5017069;28;20045;-72
2023/01/11 01:53:40;;;;;;;41.53;27.65;;;;;;;;;;5034755;28;20392;-72
2023/01/11 01:56:07;;;;;;;38.00;26.23;;;;;;;;;;5034765;28;20055;-72
2023/01/11 01:58:55;;;;;;;43.47;27.60;;;;;;;;;;5034583;28;20091;-72
2023/01/11 02:04:07;;;;;;;37.53;24.10;;;;;;;;;;5016795;28;20037;-72
2023/01/11 02:06:33;;;;;;;34.22;22.63;;;;;;;;;;5034457;28;20378;-72
2023/01/11 02:09:01;;;;;;;32.65;19.95;;;;;;;;;;5016713;28;20044;-72
2023/01/11 02:11:29;;;;;;;24.08;17.27;;;;;;;;;;5034369;28;20100;-72
2023/01/11 02:13:59;;;;;;;23.88;16.52;;;;;;;;;;5034368;28;20481;-72
2023/01/11 02:16:25;;;;;;;24.60;16.85;;;;;;;;;;5016544;28;20477;-72
2023/01/11 02:18:51;;;;;;;23.75;16.50;;;;;;;;;;5034165;28;20034;-69
2023/01/11 02:21:22;;;;;;;23.20;16.50;;;;;;;;;;5034240;28;20497;-68
2023/01/11 02:24:02;;;;;;;22.98;16.15;;;;;;;;;;5034469;28;20042;-69
2023/01/11 02:26:28;;;;;;;;;;;;;;;;;;5034453;28;20095;-68
2023/01/11 02:29:03;;;;;;;34.00;20.87;;;;;;;;;;5033364;28;20361;-67
2023/01/11 02:31:28;;;;;;;30.73;20.80;;;;;;;;;;5033956;28;20660;-67
2023/01/11 02:33:53;;;;;;;32.22;22.45;;;;;;;;;;5033932;28;20067;-67
2023/01/11 02:36:18;;;;;;;31.90;21.08;;;;;;;;;;5034059;28;20043;-71
2023/01/11 02:39:02;;;;;;;30.95;21.85;;;;;;;;;;5033776;28;20082;-70
2023/01/11 02:47:14;;;;;;;38.05;22.75;;;;;;;;;;5033650;28;20041;-67
2023/01/11 02:49:44;;;;;;;31.85;22.10;;;;;;;;;;5016033;28;20499;-67
2023/01/11 02:52:12;;;;;;;32.30;21.98;;;;;;;;;;5033559;28;20042;-67
2023/01/11 02:54:40;;;;;;;32.75;20.63;;;;;;;;;;5033584;28;20041;-69
2023/01/11 02:57:07;;;;;;;32.75;21.33;;;;;;;;;;5033508;28;20059;-69
2023/01/11 02:59:33;;;;;;;35.45;22.80;;;;;;;;;;5033523;28;20018;-71
2023/01/11 03:01:59;;;;;;;44.33;26.63;;;;;;;;;;5033486;28;20064;-71
2023/01/11 03:04:26;;;;;;;38.85;23.73;;;;;;;;;;5033494;28;20044;-71
2023/01/11 03:07:03;;;;;;;30.55;20.80;;;;;;;;;;5033516;28;20041;-71
2023/01/11 03:09:49;;;;;;;32.78;21.27;;;;;;;;;;5033490;28;20053;-71
2023/01/11 03:15:13;;;;;;;39.85;23.23;;;;;;;;;;5033354;28;20045;-67
2023/01/11 03:17:44;;;;;;;31.60;21.05;;;;;;;;;;5033154;28;20045;-67
2023/01/11 03:20:27;;;;;;;29.10;19.92;;;;;;;;;;5033185;28;20033;-66
2023/01/11 03:23:08;;;;;;;33.20;20.58;;;;;;;;;;5033170;28;20049;-71
2023/01/11 03:25:53;;;;;;;28.85;19.55;;;;;;;;;;5033205;28;20061;-72
2023/01/11 03:28:26;;;;;;;28.80;19.10;;;;;;;;;;5033146;28;20068;-73
2023/01/11 03:30:58;;;;;;;19.58;15.13;;;;;;;;;;5033052;28;20046;-73
2023/01/11 03:33:25;;;;;;;21.85;16.05;;;;;;;;;;5015569;28;20045;-73
2023/01/11 03:35:54;;;;;;;19.15;14.85;;;;;;;;;;4999025;28;20451;-74
2023/01/11 03:38:19;;;;;;;26.08;17.15;;;;;;;;;;5032506;28;20432;-73
2023/01/11 03:40:54;;;;;;;26.25;16.75;;;;;;;;;;5021856;28;20041;-73
2023/01/11 03:43:20;;;;;;;24.52;16.55;;;;;;;;;;5039753;28;20037;-72
2023/01/11 03:45:51;;;;;;;25.70;17.27;;;;;;;;;;5021843;28;20128;-72
2023/01/11 03:48:18;;;;;;;25.65;17.05;;;;;;;;;;5039897;28;20056;-73
2023/01/11 03:50:44;;;;;;;28.05;18.25;;;;;;;;;;5039830;28;20087;-73
2023/01/11 03:53:12;;;;;;;25.98;18.15;;;;;;;;;;5039932;28;20121;-73
2023/01/11 03:55:38;;;;;;;25.13;17.70;;;;;;;;;;5021994;28;20452;-67
2023/01/11 03:58:04;;;;;;;26.30;17.73;;;;;;;;;;5039673;28;20089;-67
2023/01/11 04:00:30;;;;;;;24.08;16.42;;;;;;;;;;5022085;28;20068;-71
2023/01/11 04:02:55;;;;;;;25.88;16.65;;;;;;;;;;5039748;28;20543;-71
2023/01/11 04:05:20;;;;;;;23.88;16.45;;;;;;;;;;5039726;28;20034;-71
2023/01/11 04:07:46;;;;;;;24.75;16.50;;;;;;;;;;5038458;28;20076;-70
2023/01/11 04:10:11;;;;;;;22.27;16.27;;;;;;;;;;5021906;28;20049;-67
2023/01/11 04:12:37;;;;;;;22.00;16.17;;;;;;;;;;5039667;28;20029;-70
2023/01/11 04:15:04;;;;;;;24.73;17.00;;;;;;;;;;5039646;28;20128;-75
2023/01/11 04:17:29;;;;;;;25.90;16.52;;;;;;;;;;5038315;28;20488;-75
2023/01/11 04:19:55;;;;;;;24.42;17.08;;;;;;;;;;5039562;28;20163;-75
2023/01/11 04:22:20;;;;;;;25.58;17.35;;;;;;;;;;5039600;28;20116;-76
2023/01/11 04:24:45;;;;;;;33.65;22.60;;;;;;;;;;5039563;28;20072;-76
2023/01/11 04:27:10;;;;;;;28.15;20.25;;;;;;;;;;5039489;28;20125;-76
2023/01/11 04:29:36;;;;;;;35.35;22.40;;;;;;;;;;5039523;28;20037;-71
2023/01/11 04:32:03;;;;;;;30.98;20.23;;;;;;;;;;5021733;28;20489;-71
2023/01/11 04:34:28;;;;;;;25.23;18.95;;;;;;;;;;5039462;28;20034;-71
2023/01/11 04:36:54;;;;;;;25.52;18.83;;;;;;;;;;5039331;28;20041;-71
2023/01/11 04:39:19;;;;;;;29.30;20.13;;;;;;;;;;5039394;28;20041;-71
2023/01/11 04:44:29;;;;;;;22.80;17.02;;;;;;;;;;5039133;28;20049;-72
2023/01/11 04:46:55;;;;;;;25.70;17.13;;;;;;;;;;5039291;28;20037;-72
2023/01/11 04:49:20;;;;;;;21.67;16.45;;;;;;;;;;5039326;28;20040;-71
2023/01/11 04:51:45;;;;;;;22.30;16.50;;;;;;;;;;5035712;28;20028;-68
2023/01/11 04:54:11;;;;;;;25.52;17.70;;;;;;;;;;5036153;28;20095;-68
2023/01/11 04:56:36;;;;;;;26.10;18.52;;;;;;;;;;5036035;28;20036;-68
2023/01/11 04:59:01;;;;;;;26.25;18.42;;;;;;;;;;5036140;28;20033;-68
2023/01/11 05:01:26;;;;;;;23.73;17.02;;;;;;;;;;5034760;28;20048;-72
2023/01/11 05:03:52;;;;;;;25.75;18.48;;;;;;;;;;5036043;28;20034;-69
2023/01/11 05:06:23;;;;;;;23.98;17.70;;;;;;;;;;5034528;28;20059;-69
2023/01/11 05:08:48;;;;;;;24.52;17.48;;;;;;;;;;5034974;28;20041;-69
2023/01/11 05:11:14;;;;;;;25.73;18.50;;;;;;;;;;5034854;28;20052;-70
2023/01/11 05:13:43;;;;;;;26.67;18.52;;;;;;;;;;5034814;28;20068;-69
2023/01/11 05:16:11;;;;;;;24.98;18.15;;;;;;;;;;5034725;28;20439;-69
2023/01/11 05:18:40;;;;;;;24.90;18.00;;;;;;;;;;5034338;28;20544;-69
2023/01/11 05:21:05;;;;;;;25.67;17.73;;;;;;;;;;5034747;28;20038;-70
2023/01/11 05:23:31;;;;;;;25.67;18.25;;;;;;;;;;5034714;28;20034;-70
2023/01/11 05:25:57;;;;;;;29.02;19.15;;;;;;;;;;5034673;28;20432;-70
2023/01/11 05:28:22;;;;;;;34.22;20.65;;;;;;;;;;5033306;28;20100;-70
2023/01/11 05:30:52;;;;;;;31.42;20.77;;;;;;;;;;5034528;28;20144;-70
2023/01/11 05:33:17;;;;;;;36.85;22.38;;;;;;;;;;5033803;28;20049;-70
2023/01/11 05:35:42;;;;;;;33.10;21.98;;;;;;;;;;5034471;28;20075;-69
2023/01/11 05:38:08;;;;;;;33.35;21.88;;;;;;;;;;5033119;28;20485;-71
2023/01/11 05:40:33;;;;;;;33.67;21.77;;;;;;;;;;5016820;28;20115;-73
2023/01/11 05:42:58;;;;;;;43.55;26.15;;;;;;;;;;5035349;28;20401;-73
2023/01/11 05:45:31;;;;;;;40.38;23.88;;;;;;;;;;5034754;28;20049;-74
2023/01/11 05:47:56;;;;;;;39.03;25.00;;;;;;;;;;5033205;28;20431;-74
2023/01/11 05:50:22;;;;;;;39.58;24.65;;;;;;;;;;5035317;28;20048;-74
2023/01/11 05:52:47;;;;;;;39.38;25.52;;;;;;;;;;5017256;28;20485;-74
2023/01/11 05:55:14;;;;;;;40.17;25.48;;;;;;;;;;5035248;28;20030;-74
2023/01/11 05:57:40;;;;;;;39.63;25.60;;;;;;;;;;5034516;28;20041;-74
2023/01/11 06:00:06;;;;;;;40.70;26.00;;;;;;;;;;5016645;28;20041;-71
2023/01/11 06:02:35;;;;;;;41.97;26.50;;;;;;;;;;5033857;28;20362;-71
2023/01/11 06:05:01;;;;;;;35.38;23.48;;;;;;;;;;5035114;28;20029;-71
2023/01/11 06:07:28;;;;;;;38.47;24.45;;;;;;;;;;5034861;28;20557;-71
2023/01/11 06:09:53;;;;;;;37.42;24.50;;;;;;;;;;5035015;28;20477;-72
2023/01/11 06:12:19;;;;;;;42.78;25.25;;;;;;;;;;5035128;28;20068;-72
2023/01/11 06:14:44;;;;;;;43.22;25.85;;;;;;;;;;5034789;28;20124;-72
2023/01/11 06:17:09;;;;;;;39.60;24.02;;;;;;;;;;5034632;28;20068;-72
2023/01/11 06:19:34;;;;;;;34.13;21.90;;;;;;;;;;5034846;28;20541;-72
2023/01/11 06:22:00;;;;;;;40.47;25.45;;;;;;;;;;5035131;28;20116;-72
2023/01/11 06:24:25;;;;;;;39.08;25.08;;;;;;;;;;5039025;23;20060;-72
2023/01/11 06:26:51;;;;;;;42.55;25.92;;;;;;;;;;5054478;28;20191;-72
2023/01/11 06:29:17;;;;;;;45.05;27.50;;;;;;;;;;5051494;23;20531;-72
2023/01/11 06:31:42;;;;;;;41.63;26.98;;;;;;;;;;5034406;28;20041;-72
2023/01/11 06:34:09;;;;;;;37.22;27.27;;;;;;;;;;5034201;28;20030;-72
2023/01/11 06:36:34;;;;;;;49.47;34.97;;;;;;;;;;5034418;28;20401;-72
2023/01/11 06:39:00;;;;;;;34.05;23.95;;;;;;;;;;5032892;28;20045;-73
2023/01/11 06:41:27;;;;;;;44.00;31.48;;;;;;;;;;5034054;28;20033;-72
2023/01/11 06:43:52;;;;;;;46.83;32.25;;;;;;;;;;5033318;28;20444;-72
2023/01/11 06:46:18;;;;;;;35.70;25.33;;;;;;;;;;5034164;28;20091;-72
2023/01/11 06:48:43;;;;;;;26.27;19.23;;;;;;;;;;5033272;28;20072;-72
2023/01/11 06:51:11;;;;;;;28.60;20.85;;;;;;;;;;5034412;28;20033;-72
2023/01/11 06:53:37;;;;;;;34.53;24.42;;;;;;;;;;5057000;23;20045;-71
2023/01/11 06:56:02;;;;;;;134.68;74.30;;;;;;;;;;5053529;28;20029;-71
2023/01/11 06:58:28;;;;;;;88.47;55.50;;;;;;;;;;5052672;28;20045;-71
2023/01/11 07:00:54;;;;;;;35.58;26.20;;;;;;;;;;5052875;28;20456;-71
2023/01/11 07:03:19;;;;;;;65.35;44.72;;;;;;;;;;5052634;28;20071;-71
2023/01/11 07:05:45;;;;;;;54.00;39.55;;;;;;;;;;5052688;28;20040;-71
2023/01/11 07:08:10;;;;;;;52.80;37.78;;;;;;;;;;5052597;28;20045;-71
2023/01/11 07:10:36;;;;;;;33.22;26.13;;;;;;;;;;5052633;28;20511;-71
2023/01/11 07:13:01;;;;;;;32.60;23.67;;;;;;;;;;5053399;28;20033;-71
2023/01/11 07:15:26;;;;;;;25.88;19.85;;;;;;;;;;5035642;28;20036;-71
2023/01/11 07:17:53;;;;;;;19.42;16.70;;;;;;;;;;5054060;28;20041;-71
2023/01/11 07:20:18;;;;;;;32.88;24.63;;;;;;;;;;5035650;28;20064;-71
2023/01/11 07:22:43;;;;;;;16.27;13.80;;;;;;;;;;5036336;28;20118;-71
2023/01/11 07:25:09;;;;;;;17.85;15.02;;;;;;;;;;5036074;28;20041;-71
2023/01/11 07:27:34;;;;;;;26.75;21.27;;;;;;;;;;5035679;28;20036;-71
2023/01/11 07:29:59;;;;;;;37.50;28.08;;;;;;;;;;5053473;28;20395;-71
2023/01/11 07:32:26;;;;;;;28.25;23.60;;;;;;;;;;5035626;28;20507;-70
2023/01/11 07:34:51;;;;;;;25.58;19.90;;;;;;;;;;5053432;28;20052;-71
2023/01/11 07:37:17;;;;;;;21.00;17.05;;;;;;;;;;5053673;28;20029;-71
2023/01/11 07:39:42;;;;;;;22.40;17.25;;;;;;;;;;5053398;28;20037;-71
2023/01/11 07:44:53;;;;;;;31.63;23.55;;;;;;;;;;5035417;28;20438;-71
2023/01/11 07:47:18;;;;;;;24.23;19.92;;;;;;;;;;5053634;28;20169;-71
2023/01/11 07:49:44;;;;;;;21.58;17.75;;;;;;;;;;5053275;28;20107;-71
2023/01/11 07:52:10;;;;;;;21.13;15.70;;;;;;;;;;5053260;28;20048;-71
2023/01/11 07:54:35;;;;;;;19.40;15.40;;;;;;;;;;5035263;28;20075;-71
2023/01/11 07:57:01;;;;;;;22.75;17.63;;;;;;;;;;5053138;28;20373;-71
2023/01/11 07:59:26;;;;;;;39.92;27.02;;;;;;;;;;5053774;28;20061;-72
2023/01/11 08:01:52;;;;;;;24.67;19.30;;;;;;;;;;5035836;28;20095;-72
2023/01/11 08:04:17;;;;;;;22.30;17.83;;;;;;;;;;5035591;28;20033;-72
2023/01/11 08:06:42;;;;;;;26.42;19.15;;;;;;;;;;5053192;28;20037;-72
2023/01/11 08:09:08;;;;;;;33.10;23.88;;;;;;;;;;5053454;28;20037;-72
2023/01/11 08:17:01;;;;;;;19.27;14.75;;;;;;;;;;5053246;28;20048;-72
2023/01/11 08:19:26;;;;;;;18.75;14.27;;;;;;;;;;5053310;28;20044;-72
2023/01/11 08:21:52;;;;;;;24.55;17.80;;;;;;;;;;5053233;28;20025;-72
2023/01/11 08:24:17;;;;;;;24.02;15.77;;;;;;;;;;5035215;28;20045;-73
2023/01/11 08:26:43;;;;;;;25.25;17.10;;;;;;;;;;5055664;28;20086;-72
2023/01/11 08:29:08;;;;;;;31.48;19.52;;;;;;;;;;5039136;28;20033;-72
2023/01/11 08:31:33;;;;;;;25.70;18.35;;;;;;;;;;5056662;28;20033;-72
2023/01/11 08:33:58;;;;;;;27.13;18.33;;;;;;;;;;5056625;28;20503;-72
2023/01/11 08:36:26;;;;;;;30.73;19.80;;;;;;;;;;5038769;28;20033;-72
2023/01/11 08:38:57;;;;;;;27.08;16.73;;;;;;;;;;5022079;28;20043;-72
2023/01/11 08:41:24;;;;;;;19.58;14.77;;;;;;;;;;5056783;28;20384;-72
2023/01/11 08:43:49;;;;;;;16.42;13.57;;;;;;;;;;5056445;28;20040;-72
2023/01/11 08:46:14;;;;;;;16.63;13.40;;;;;;;;;;5056375;28;20393;-72
2023/01/11 08:48:40;;;;;;;17.00;13.45;;;;;;;;;;5039572;28;20041;-72
2023/01/11 08:51:06;;;;;;;16.35;12.75;;;;;;;;;;5038355;28;20480;-71
2023/01/11 08:53:31;;;;;;;15.30;12.63;;;;;;;;;;5056105;28;20041;-71
2023/01/11 08:55:56;;;;;;;15.07;11.82;;;;;;;;;;5056537;28;20033;-72
2023/01/11 08:58:21;;;;;;;14.52;12.27;;;;;;;;;;5038237;28;20072;-72
2023/01/11 09:00:47;;;;;;;15.82;11.77;;;;;;;;;;5056109;28;20041;-71
2023/01/11 09:03:13;;;;;;;14.77;11.75;;;;;;;;;;5021717;28;20036;-71
2023/01/11 09:05:39;;;;;;;13.68;11.02;;;;;;;;;;5056118;28;20028;-71
2023/01/11 09:08:05;;;;;;;17.88;12.20;;;;;;;;;;5021754;28;20048;-71
2023/01/11 09:10:31;;;;;;;14.80;11.32;;;;;;;;;;5056504;28;20033;-71
2023/01/11 09:12:57;;;;;;;15.35;12.13;;;;;;;;;;5056259;28;20388;-71
2023/01/11 09:15:23;;;;;;;15.10;12.13;;;;;;;;;;5055830;28;20492;-71
2023/01/11 09:17:48;;;;;;;12.88;10.48;;;;;;;;;;5038089;28;20036;-71
2023/01/11 09:20:14;;;;;;;14.05;11.57;;;;;;;;;;5055816;28;20558;-71
2023/01/11 09:22:40;;;;;;;13.75;10.75;;;;;;;;;;5055707;28;20519;-71
2023/01/11 09:25:05;;;;;;;13.68;11.18;;;;;;;;;;5055750;28;20512;-71
2023/01/11 09:27:31;;;;;;;12.27;10.23;;;;;;;;;;5055903;28;20484;-71
2023/01/11 09:29:56;;;;;;;12.43;10.15;;;;;;;;;;5055667;28;20396;-71
2023/01/11 09:32:22;;;;;;;13.27;11.13;;;;;;;;;;5037782;28;20044;-71
2023/01/11 09:34:48;;;;;;;16.92;12.57;;;;;;;;;;5055779;28;20048;-71
2023/01/11 09:37:17;;;;;;;20.20;14.45;;;;;;;;;;5055629;28;20154;-71
2023/01/11 09:39:42;;;;;;;16.33;12.52;;;;;;;;;;5055612;28;20040;-71
2023/01/11 09:42:14;;;;;;;14.15;11.70;;;;;;;;;;5037546;28;20029;-71
2023/01/11 09:44:50;;;;;;;15.23;12.27;;;;;;;;;;5055370;28;20499;-71
2023/01/11 09:47:15;;;;;;;15.20;11.40;;;;;;;;;;5055589;28;20040;-71
2023/01/11 09:49:43;;;;;;;14.80;11.30;;;;;;;;;;5055250;28;20469;-72
2023/01/11 09:52:28;;;;;;;15.25;11.60;;;;;;;;;;5020857;28;20037;-72
2023/01/11 09:54:54;;;;;;;16.90;12.68;;;;;;;;;;5055055;28;20068;-72
2023/01/11 09:57:22;;;;;;;16.15;12.27;;;;;;;;;;5055095;28;20550;-71
2023/01/11 10:00:03;;;;;;;16.60;12.13;;;;;;;;;;5055080;28;20041;-71
2023/01/11 10:02:40;;;;;;;13.18;10.77;;;;;;;;;;5055045;28;20041;-71
2023/01/11 10:05:22;;;;;;;17.02;12.25;;;;;;;;;;5055232;28;20381;-71
2023/01/11 10:07:56;;;;;;;17.83;12.55;;;;;;;;;;5037033;28;20468;-71
2023/01/11 10:10:22;;;;;;;19.10;13.32;;;;;;;;;;5055131;28;20071;-72
2023/01/11 10:13:03;;;;;;;17.70;13.27;;;;;;;;;;5054802;28;20041;-72
2023/01/11 10:15:34;;;;;;;16.73;12.25;;;;;;;;;;5036865;28;20045;-72
2023/01/11 10:18:12;;;;;;;21.05;15.15;;;;;;;;;;5055079;28;20136;-72
2023/01/11 10:20:42;;;;;;;20.05;14.95;;;;;;;;;;5054606;28;20056;-72
2023/01/11 10:23:20;;;;;;;22.88;16.40;;;;;;;;;;5036826;28;20112;-72
2023/01/11 10:25:50;;;;;;;18.55;13.48;;;;;;;;;;5054564;28;20519;-72
2023/01/11 10:28:30;;;;;;;12.57;8.82;;;;;;;;;;5054781;28;20128;-72
2023/01/11 10:36:24;;;;;;;15.05;10.07;;;;;;;;;;5054616;28;20136;-72
2023/01/11 10:41:32;;;;;;;13.95;9.93;;;;;;;;;;5054396;28;20076;-72
2023/01/11 10:44:07;;;;;;;11.77;9.55;;;;;;;;;;5054444;28;20392;-72
2023/01/11 10:46:35;;;;;;;18.73;12.65;;;;;;;;;;5054493;28;20099;-72
2023/01/11 10:49:20;;;;;;;9.90;7.80;;;;;;;;;;5053469;28;20055;-72
2023/01/11 10:51:48;;;;;;;7.90;6.57;;;;;;;;;;5053262;28;20139;-72
2023/01/11 10:54:18;;;;;;;8.90;6.30;;;;;;;;;;5053986;28;20049;-72
2023/01/11 10:56:53;;;;;;;7.43;6.00;;;;;;;;;;5054212;28;20045;-72
2023/01/11 10:59:47;;;;;;;7.53;5.72;;;;;;;;;;5054494;28;20029;-72
2023/01/11 11:02:28;;;;;;;7.53;6.35;;;;;;;;;;5054154;28;20053;-72
2023/01/11 11:04:53;;;;;;;;;;;;;;;;;;5054881;28;20033;-72
2023/01/11 11:07:24;;;;;;;9.20;6.20;;;;;;;;;;5054125;28;20340;-72
2023/01/11 11:09:57;;;;;;;6.75;5.47;;;;;;;;;;5054067;28;20373;-72
2023/01/11 11:12:25;;;;;;;8.13;6.15;;;;;;;;;;5053982;28;20040;-72
2023/01/11 11:15:06;;;;;;;7.60;6.60;;;;;;;;;;5035855;28;20045;-72
2023/01/11 11:18:03;;;;;;;7.60;6.68;;;;;;;;;;5061499;23;20064;-70
2023/01/11 11:20:29;;;;;;;7.95;6.35;;;;;;;;;;4956236;28;20069;-71
2023/01/11 11:22:56;;;;;;;12.95;8.20;;;;;;;;;;4957638;28;20038;-71
2023/01/11 11:25:29;;;;;;;12.30;9.77;;;;;;;;;;4974901;28;20077;-71
2023/01/11 11:27:57;;;;;;;15.43;11.98;;;;;;;;;;4975146;28;20467;-71
2023/01/11 11:30:30;;;;;;;16.70;13.20;;;;;;;;;;4974862;28;20035;-71
2023/01/11 11:33:00;;;;;;;15.82;13.48;;;;;;;;;;4974825;28;20474;-71
2023/01/11 11:35:26;;;;;;;;;;;;;;;;;;4975812;28;20106;-71
2023/01/11 11:37:52;;;;;;;11.13;8.70;;;;;;;;;;4974934;28;20469;-71
2023/01/11 11:40:35;;;;;;;9.57;7.55;;;;;;;;;;4974768;28;20341;-71
2023/01/11 11:43:08;;;;;;;12.52;10.07;;;;;;;;;;4957829;28;20061;-70
2023/01/11 11:45:33;;;;;;;14.65;10.45;;;;;;;;;;4974978;28;20498;-71
2023/01/11 11:47:59;;;;;;;12.35;10.13;;;;;;;;;;4974977;28;20035;-71
2023/01/11 11:50:25;;;;;;;12.07;9.98;;;;;;;;;;4974950;28;20117;-71
2023/01/11 11:52:53;;;;;;;13.70;10.13;;;;;;;;;;4974777;28;20447;-71
2023/01/11 11:55:25;;;;;;;13.57;10.18;;;;;;;;;;4957301;28;20382;-71
2023/01/11 11:57:51;;;;;;;11.23;9.65;;;;;;;;;;4974520;28;20391;-71
2023/01/11 12:00:27;;;;;;;12.98;9.60;;;;;;;;;;4976618;28;20042;-71
2023/01/11 12:02:55;;;;;;;11.82;10.05;;;;;;;;;;4978729;28;20050;-71
2023/01/11 12:05:20;;;;;;;13.73;10.18;;;;;;;;;;4978728;28;20090;-71
2023/01/11 12:07:47;;;;;;;17.42;12.02;;;;;;;;;;4978680;28;20046;-71
2023/01/11 12:10:19;;;;;;;14.93;11.93;;;;;;;;;;4978321;28;20039;-71
2023/01/11 12:12:49;;;;;;;16.92;13.02;;;;;;;;;;4961086;28;20050;-71
2023/01/11 12:15:15;;;;;;;17.98;13.10;;;;;;;;;;4978544;28;20046;-71
2023/01/11 12:17:40;;;;;;;12.27;8.38;;;;;;;;;;4978158;28;20409;-71
2023/01/11 12:20:18;;;;;;;16.38;10.85;;;;;;;;;;4978034;28;20074;-71
2023/01/11 12:22:43;;;;;;;15.13;10.63;;;;;;;;;;4978349;28;20067;-71
2023/01/11 12:25:08;;;;;;;15.40;10.98;;;;;;;;;;4978110;28;20065;-70
2023/01/11 12:27:49;;;;;;;14.15;10.10;;;;;;;;;;4978022;28;20050;-71
2023/01/11 12:30:19;;;;;;;17.02;11.50;;;;;;;;;;4978174;28;20117;-71
2023/01/11 12:33:04;;;;;;;13.07;9.48;;;;;;;;;;4960890;28;20463;-71
2023/01/11 12:35:33;;;;;;;16.75;11.95;;;;;;;;;;4960590;28;20053;-71
2023/01/11 12:38:17;;;;;;;16.35;12.73;;;;;;;;;;4961084;28;20035;-70
2023/01/11 12:40:53;;;;;;;11.77;8.23;;;;;;;;;;4978362;28;20039;-70
2023/01/11 12:43:37;;;;;;;20.40;13.00;;;;;;;;;;4977838;28;20042;-71
2023/01/11 12:46:03;;;;;;;13.85;9.13;;;;;;;;;;4978233;28;20035;-71
2023/01/11 12:48:39;;;;;;;16.27;11.85;;;;;;;;;;4977668;28;20035;-71
2023/01/11 12:51:13;;;;;;;13.05;9.45;;;;;;;;;;4977566;28;20049;-71
2023/01/11 12:53:44;;;;;;;18.73;12.65;;;;;;;;;;4978119;28;20039;-71
2023/01/11 12:56:28;;;;;;;18.58;13.80;;;;;;;;;;4960113;28;20421;-71
2023/01/11 12:58:57;;;;;;;14.82;10.85;;;;;;;;;;4960276;28;20047;-70
2023/01/11 13:01:32;;;;;;;14.30;10.45;;;;;;;;;;4977537;28;20430;-70
2023/01/11 13:04:09;;;;;;;13.50;7.95;;;;;;;;;;4977259;28;20114;-70
2023/01/11 13:06:38;;;;;;;16.02;10.90;;;;;;;;;;4959887;28;20450;-70
2023/01/11 13:09:07;;;;;;;15.45;10.80;;;;;;;;;;4959877;28;20097;-70
2023/01/11 13:11:39;;;;;;;18.05;10.73;;;;;;;;;;4976594;28;20526;-70
2023/01/11 13:14:10;;;;;;;23.75;14.88;;;;;;;;;;4977475;28;20047;-70
2023/01/11 13:16:46;;;;;;;20.20;14.18;;;;;;;;;;4977071;28;20042;-70
2023/01/11 13:19:17;;;;;;;22.17;14.88;;;;;;;;;;4959858;28;20054;-70
2023/01/11 13:21:52;;;;;;;23.67;15.88;;;;;;;;;;4977571;28;20414;-70
2023/01/11 13:24:24;;;;;;;20.20;13.85;;;;;;;;;;4959838;28;20043;-70
2023/01/11 13:26:50;;;;;;;30.70;20.73;;;;;;;;;;4977232;28;20034;-70
2023/01/11 13:29:22;;;;;;;33.50;20.65;;;;;;;;;;4976912;28;20046;-70
2023/01/11 13:31:48;;;;;;;20.70;15.60;;;;;;;;;;4977123;28;20066;-70
2023/01/11 13:34:21;;;;;;;27.08;16.55;;;;;;;;;;4976788;28;20047;-70
2023/01/11 13:36:50;;;;;;;28.42;19.23;;;;;;;;;;4976829;28;20479;-70
2023/01/11 13:39:20;;;;;;;30.48;21.58;;;;;;;;;;4959492;28;20038;-70
2023/01/11 13:41:46;;;;;;;;;;;;;;;;;;4977111;28;20039;-70
2023/01/11 13:44:12;;;;;;;23.67;17.05;;;;;;;;;;4977191;28;19917;-70
2023/01/11 13:46:40;;;;;;;27.63;19.27;;;;;;;;;;4976593;28;20487;-70
2023/01/11 13:49:12;;;;;;;20.00;14.93;;;;;;;;;;4976308;28;20113;-70
2023/01/11 13:51:40;;;;;;;29.40;19.92;;;;;;;;;;4976461;28;20058;-69
2023/01/11 13:54:09;;;;;;;35.85;23.48;;;;;;;;;;4959174;28;20138;-70
2023/01/11 13:56:37;;;;;;;31.77;22.10;;;;;;;;;;4976709;28;20042;-70
2023/01/11 13:59:18;;;;;;;20.50;15.40;;;;;;;;;;4976574;28;20062;-69
2023/01/11 14:01:53;;;;;;;20.30;14.27;;;;;;;;;;4976245;28;20389;-69
2023/01/11 14:04:27;;;;;;;21.10;14.30;;;;;;;;;;4958993;28;20051;-71
2023/01/11 14:06:59;;;;;;;22.77;15.95;;;;;;;;;;4976175;28;20035;-71
2023/01/11 14:09:33;;;;;;;21.83;15.98;;;;;;;;;;4976087;28;20038;-70
2023/01/11 14:12:01;;;;;;;21.05;15.48;;;;;;;;;;4976304;28;20098;-69
2023/01/11 14:14:45;;;;;;;17.85;13.85;;;;;;;;;;4976585;28;20035;-70
2023/01/11 14:17:13;;;;;;;18.02;13.70;;;;;;;;;;4958076;28;20038;-70
2023/01/11 14:19:55;;;;;;;18.75;14.45;;;;;;;;;;4975512;28;20047;-69
2023/01/11 14:22:33;;;;;;;24.35;16.52;;;;;;;;;;4974751;28;20498;-69
2023/01/11 14:24:59;;;;;;;57.30;31.20;;;;;;;;;;4973651;28;20061;-69
2023/01/11 14:27:33;;;;;;;67.40;37.53;;;;;;;;;;4973876;28;20096;-69
2023/01/11 14:30:03;;;;;;;75.53;41.70;;;;;;;;;;4956495;28;20053;-69
2023/01/11 14:32:31;;;;;;;57.30;34.55;;;;;;;;;;4941049;28;20042;-69
2023/01/11 14:35:15;;;;;;;69.15;42.30;;;;;;;;;;4956747;28;20050;-69
2023/01/11 14:37:50;;;;;;;50.03;33.78;;;;;;;;;;4974511;28;20035;-69
2023/01/11 14:40:15;;;;;;;46.83;28.92;;;;;;;;;;5012215;23;20053;-66
2023/01/11 14:42:52;;;;;;;28.90;20.40;;;;;;;;;;5035325;28;20124;-66
2023/01/11 14:45:22;;;;;;;26.45;18.13;;;;;;;;;;5053226;28;20029;-66
2023/01/11 14:48:11;;;;;;;22.63;15.73;;;;;;;;;;5053004;28;20041;-66
2023/01/11 14:50:55;;;;;;;23.27;18.38;;;;;;;;;;5043098;28;20047;-65
2023/01/11 14:53:28;;;;;;;27.58;20.63;;;;;;;;;;5053774;28;20126;-66
2023/01/11 14:55:53;;;;;;;48.60;33.63;;;;;;;;;;5053902;28;20404;-65
2023/01/11 14:58:26;;;;;;;75.80;48.83;;;;;;;;;;5035899;28;20056;-66
2023/01/11 15:00:54;;;;;;;77.00;44.92;;;;;;;;;;5035756;28;20064;-65
2023/01/11 15:03:20;;;;;;;70.47;41.42;;;;;;;;;;5019277;28;20467;-65
2023/01/11 15:05:47;;;;;;;126.30;71.07;;;;;;;;;;5053566;28;20041;-66
2023/01/11 15:08:13;;;;;;;105.57;58.83;;;;;;;;;;5054239;28;20041;-65